Time;durP1;ratioP1;P1;durP2;ratioP2;P2;SDS_P1;SDS_P2;PMS_P1;PMS_P2;Temp;Humidity;BMP_temperature;BMP_pressure;BME280_temperature;BME280_humidity;BME280_pressure;Samples;Min_cycle;Max_cycle;Signal;HPM_P1;HPM_P2
2023/10/08 00:02:11;;;;;;;4.10;3.67;;;;;;;15.81;46.05;95613.53;5045751;28;20225;-64
2023/10/08 00:04:38;;;;;;;7.93;3.67;;;;;;;15.81;46.05;95613.53;5046355;28;20257;-64
2023/10/08 00:07:07;;;;;;;8.85;3.88;;;;;;;15.81;46.05;95613.53;5046036;28;20592;-64
2023/10/08 00:09:36;;;;;;;8.27;4.18;;;;;;;15.81;46.05;95613.53;5045796;28;20306;-60
2023/10/08 00:12:05;;;;;;;6.15;3.92;;;;;;;15.81;46.05;95613.53;5048237;28;20395;-64
2023/10/08 00:14:32;;;;;;;9.10;4.45;;;;;;;15.81;46.05;95613.53;5053199;28;20293;-65
2023/10/08 00:17:00;;;;;;;5.43;3.92;;;;;;;15.81;46.05;95613.53;5046883;28;20230;-65
2023/10/08 00:19:33;;;;;;;4.00;3.67;;;;;;;15.81;46.05;95613.53;5049502;28;20206;-64
2023/10/08 00:22:04;;;;;;;6.90;3.92;;;;;;;15.81;46.05;95613.53;5050829;28;20238;-65
2023/10/08 00:24:33;;;;;;;3.65;3.35;;;;;;;15.81;46.05;95613.53;5050696;28;20205;-62
2023/10/08 00:27:00;;;;;;;5.07;3.55;;;;;;;15.81;46.05;95613.53;5050164;28;21013;-65
2023/10/08 00:29:31;;;;;;;6.45;3.45;;;;;;;15.81;46.05;95613.53;5053588;28;20279;-65
2023/10/08 00:31:58;;;;;;;7.03;4.68;;;;;;;15.81;46.05;95613.53;5058852;28;20222;-65
2023/10/08 00:34:27;;;;;;;5.60;4.35;;;;;;;15.81;46.05;95613.53;5054043;28;20694;-62
2023/10/08 00:36:53;;;;;;;5.90;3.90;;;;;;;15.81;46.05;95613.53;5055107;28;20206;-65
2023/10/08 00:39:23;;;;;;;5.05;3.63;;;;;;;15.81;46.05;95613.53;5063753;28;20676;-62
2023/10/08 00:41:54;;;;;;;6.38;5.05;;;;;;;15.81;46.05;95613.53;5061372;28;20194;-63
2023/10/08 00:44:23;;;;;;;8.40;4.03;;;;;;;15.81;46.05;95613.53;5061268;28;20680;-62
2023/10/08 00:46:51;;;;;;;5.53;3.55;;;;;;;15.81;46.05;95613.53;5063188;28;20198;-64
2023/10/08 00:49:39;;;;;;;8.50;4.57;;;;;;;15.81;46.05;95613.53;5064822;28;20205;-65
2023/10/08 00:52:26;;;;;;;6.45;4.18;;;;;;;15.81;46.05;95613.53;5064954;28;20191;-63
2023/10/08 00:55:07;;;;;;;5.50;3.88;;;;;;;15.81;46.05;95613.53;5063637;28;20206;-63
2023/10/08 00:57:36;;;;;;;4.55;3.40;;;;;;;15.81;46.05;95613.53;5065768;28;20291;-64
2023/10/08 01:00:06;;;;;;;5.47;4.25;;;;;;;15.81;46.05;95613.53;5066229;28;20202;-65
2023/10/08 01:02:45;;;;;;;5.53;4.38;;;;;;;15.81;46.05;95613.53;5064740;28;20226;-62
2023/10/08 01:05:14;;;;;;;6.45;3.90;;;;;;;15.81;46.05;95613.53;5066507;28;20205;-64
2023/10/08 01:07:44;;;;;;;4.95;4.40;;;;;;;15.81;46.05;95613.53;5065513;28;20205;-63
2023/10/08 01:10:13;;;;;;;4.93;4.25;;;;;;;15.81;46.05;95613.53;5065278;28;20213;-65
2023/10/08 01:12:54;;;;;;;8.25;4.55;;;;;;;15.81;46.05;95613.53;5064767;28;20202;-62
2023/10/08 01:15:28;;;;;;;6.13;4.50;;;;;;;15.81;46.05;95613.53;5065279;28;20206;-65
2023/10/08 01:18:00;;;;;;;5.72;4.57;;;;;;;15.81;46.05;95613.53;5065502;28;20251;-61
2023/10/08 01:20:34;;;;;;;6.78;3.80;;;;;;;15.81;46.05;95613.53;5064922;28;20222;-65
2023/10/08 01:23:09;;;;;;;3.83;3.47;;;;;;;15.81;46.05;95613.53;5065231;28;20230;-65
2023/10/08 01:25:37;;;;;;;4.22;3.80;;;;;;;15.81;46.05;95613.53;5065462;28;20233;-65
2023/10/08 01:28:09;;;;;;;7.75;4.43;;;;;;;15.81;46.05;95613.53;5064864;28;20206;-65
2023/10/08 01:30:41;;;;;;;7.03;3.55;;;;;;;15.81;46.05;95613.53;5063587;28;20222;-63
2023/10/08 01:33:11;;;;;;;5.90;4.35;;;;;;;15.81;46.05;95613.53;5065267;28;20197;-64
2023/10/08 01:35:38;;;;;;;5.20;4.40;;;;;;;15.81;46.05;95613.53;5065095;28;20770;-65
2023/10/08 01:38:13;;;;;;;6.15;3.85;;;;;;;15.81;46.05;95613.53;5062905;28;20246;-65
2023/10/08 01:40:40;;;;;;;4.97;3.95;;;;;;;15.81;46.05;95613.53;5065504;28;20209;-65
2023/10/08 01:43:07;;;;;;;5.28;3.78;;;;;;;15.81;46.05;95613.53;5063228;28;20218;-63
2023/10/08 01:45:40;;;;;;;6.03;4.28;;;;;;;15.81;46.05;95613.53;5064100;28;20307;-63
2023/10/08 01:48:09;;;;;;;4.70;3.97;;;;;;;15.81;46.05;95613.53;5063891;28;20284;-64
2023/10/08 01:50:36;;;;;;;5.93;4.32;;;;;;;15.81;46.05;95613.53;5064696;28;20198;-64
2023/10/08 01:53:05;;;;;;;4.75;4.35;;;;;;;15.81;46.05;95613.53;5064332;28;20634;-63
2023/10/08 01:55:45;;;;;;;7.45;3.72;;;;;;;15.81;46.05;95613.53;5063239;28;20203;-64
2023/10/08 01:58:16;;;;;;;4.05;3.65;;;;;;;15.81;46.05;95613.53;5060136;28;20229;-64
2023/10/08 02:00:45;;;;;;;6.53;4.20;;;;;;;15.81;46.05;95613.53;5063127;28;20206;-65
2023/10/08 02:03:12;;;;;;;6.53;3.65;;;;;;;15.81;46.05;95613.53;5064885;28;20330;-64
2023/10/08 02:05:41;;;;;;;3.88;3.35;;;;;;;15.81;46.05;95613.53;5064050;28;20202;-65
2023/10/08 02:08:09;;;;;;;4.50;3.30;;;;;;;15.81;46.05;95613.53;5060912;28;20199;-65
2023/10/08 02:10:38;;;;;;;4.20;3.80;;;;;;;15.81;46.05;95613.53;5049551;28;20291;-65
2023/10/08 02:13:05;;;;;;;5.60;3.90;;;;;;;15.81;46.05;95613.53;5049820;28;20202;-63
2023/10/08 02:15:32;;;;;;;4.07;3.55;;;;;;;15.81;46.05;95613.53;5047674;28;20293;-63
2023/10/08 02:17:59;;;;;;;5.93;3.70;;;;;;;15.81;46.05;95613.53;5047711;28;20241;-65
2023/10/08 02:20:27;;;;;;;3.78;3.20;;;;;;;15.81;46.05;95613.53;5051974;28;20293;-64
2023/10/08 02:22:54;;;;;;;7.28;4.10;;;;;;;15.81;46.05;95613.53;5053254;28;20724;-64
2023/10/08 02:25:20;;;;;;;6.30;3.80;;;;;;;15.81;46.05;95613.53;5055125;28;20792;-63
2023/10/08 02:27:49;;;;;;;6.82;4.10;;;;;;;15.81;46.05;95613.53;5050187;28;20231;-63
2023/10/08 02:30:17;;;;;;;7.70;4.30;;;;;;;15.81;46.05;95613.53;5055482;28;20201;-65
2023/10/08 02:32:45;;;;;;;4.32;3.83;;;;;;;15.81;46.05;95613.53;5052714;28;20194;-64
2023/10/08 02:35:12;;;;;;;5.40;3.47;;;;;;;15.81;46.05;95613.53;5051385;28;20206;-63
2023/10/08 02:37:40;;;;;;;4.47;3.85;;;;;;;15.81;46.05;95613.53;5049708;28;20245;-63
2023/10/08 02:40:16;;;;;;;4.70;4.20;;;;;;;15.81;46.05;95613.53;5047656;28;20199;-64
2023/10/08 02:42:44;;;;;;;5.13;3.97;;;;;;;15.81;46.05;95613.53;5047542;28;20225;-65
2023/10/08 02:45:13;;;;;;;4.35;3.88;;;;;;;15.81;46.05;95613.53;5047212;28;20727;-65
2023/10/08 02:47:44;;;;;;;8.52;4.20;;;;;;;15.81;46.05;95613.53;5045866;28;20880;-62
2023/10/08 02:50:11;;;;;;;4.70;3.88;;;;;;;15.81;46.05;95613.53;5046146;28;20199;-64
2023/10/08 02:52:38;;;;;;;4.85;4.22;;;;;;;15.81;46.05;95613.53;5045718;28;20222;-63
2023/10/08 02:55:18;;;;;;;5.80;4.07;;;;;;;15.81;46.05;95613.53;5045220;28;20199;-61
2023/10/08 02:57:45;;;;;;;5.82;3.83;;;;;;;15.81;46.05;95613.53;5045752;28;20198;-63
2023/10/08 03:00:15;;;;;;;6.88;4.93;;;;;;;15.81;46.05;95613.53;5044834;28;20586;-63
2023/10/08 03:02:41;;;;;;;7.18;3.92;;;;;;;15.81;46.05;95613.53;5047400;28;20218;-64
2023/10/08 03:05:13;;;;;;;5.65;4.07;;;;;;;15.81;46.05;95613.53;5057631;28;20218;-64
2023/10/08 03:07:40;;;;;;;9.13;4.25;;;;;;;15.81;46.05;95613.53;5052628;28;20214;-64
2023/10/08 03:10:17;;;;;;;7.60;4.63;;;;;;;15.81;46.05;95613.53;5051311;28;20195;-64
2023/10/08 03:12:46;;;;;;;5.93;4.63;;;;;;;15.81;46.05;95613.53;5050151;28;20870;-63
2023/10/08 03:15:28;;;;;;;6.85;5.03;;;;;;;15.81;46.05;95613.53;5057562;28;20211;-62
2023/10/08 03:17:57;;;;;;;7.28;4.18;;;;;;;15.81;46.05;95613.53;5049033;28;20592;-65
2023/10/08 03:20:42;;;;;;;5.38;4.35;;;;;;;15.81;46.05;95613.53;5054435;28;20210;-64
2023/10/08 03:23:22;;;;;;;5.38;4.50;;;;;;;15.81;46.05;95613.53;5049692;28;20218;-64
2023/10/08 03:25:56;;;;;;;4.95;3.67;;;;;;;15.81;46.05;95613.53;5046588;28;20238;-64
2023/10/08 03:28:24;;;;;;;5.35;4.32;;;;;;;15.81;46.05;95613.53;5052950;28;20199;-63
2023/10/08 03:31:02;;;;;;;4.25;3.85;;;;;;;15.81;46.05;95613.53;5051604;28;20219;-62
2023/10/08 03:33:29;;;;;;;7.60;4.60;;;;;;;15.81;46.05;95613.53;5051969;28;20198;-63
2023/10/08 03:35:56;;;;;;;7.28;4.30;;;;;;;15.81;46.05;95613.53;5049313;28;20264;-65
2023/10/08 03:38:28;;;;;;;4.88;4.28;;;;;;;15.81;46.05;95613.53;5047936;28;20261;-63
2023/10/08 03:41:03;;;;;;;7.95;4.35;;;;;;;15.81;46.05;92239.88;5048848;28;20206;-64
2023/10/08 03:43:42;;;;;;;10.38;4.45;;;;;;;15.81;46.05;95613.53;5047669;28;20218;-64
2023/10/08 03:46:15;;;;;;;5.10;4.20;;;;;;;15.81;46.05;95613.53;5050980;28;20206;-64
2023/10/08 03:48:44;;;;;;;7.15;4.72;;;;;;;15.81;46.05;95613.53;5052584;28;20301;-65
2023/10/08 03:51:12;;;;;;;6.13;3.65;;;;;;;15.81;46.05;95613.53;5048783;28;20267;-64
2023/10/08 03:53:57;;;;;;;6.68;4.93;;;;;;;15.81;46.05;95613.53;5050510;28;20581;-64
2023/10/08 03:56:25;;;;;;;11.52;4.22;;;;;;;15.81;46.05;95613.53;5050097;28;20203;-64
2023/10/08 03:58:54;;;;;;;9.18;4.72;;;;;;;15.81;46.05;95613.53;5050546;28;20226;-65
2023/10/08 04:01:24;;;;;;;7.60;4.13;;;;;;;15.81;46.05;95613.53;5048317;28;20198;-63
2023/10/08 04:03:58;;;;;;;7.93;4.40;;;;;;;15.81;46.05;95613.53;5054333;28;20230;-63
2023/10/08 04:06:37;;;;;;;11.25;4.30;;;;;;;15.81;46.05;95613.53;5048336;28;20274;-66
2023/10/08 04:11:53;;;;;;;6.50;4.88;;;;;;;15.81;46.05;95613.53;5046700;28;20205;-64
2023/10/08 04:14:21;;;;;;;8.05;4.40;;;;;;;15.81;46.05;95613.53;5046938;28;20260;-63
2023/10/08 04:16:51;;;;;;;5.55;4.68;;;;;;;15.81;46.05;95613.53;5048386;28;20199;-64
2023/10/08 04:19:19;;;;;;;6.15;5.13;;;;;;;15.81;46.05;95613.53;5048980;28;20199;-65
2023/10/08 04:21:53;;;;;;;5.53;4.55;;;;;;;15.81;46.05;95613.53;5048745;28;20210;-65
2023/10/08 04:24:28;;;;;;;12.35;5.53;;;;;;;15.81;46.05;95613.53;5054490;28;20218;-63
2023/10/08 04:26:58;;;;;;;7.32;4.57;;;;;;;15.81;46.05;95613.53;5048587;28;20321;-65
2023/10/08 04:29:25;;;;;;;8.88;4.47;;;;;;;15.81;46.05;95613.53;5046983;28;20796;-65
2023/10/08 04:32:07;;;;;;;11.50;5.20;;;;;;;15.81;46.05;95613.53;5047220;28;20301;-65
2023/10/08 04:34:35;;;;;;;4.63;4.20;;;;;;;15.81;46.05;95613.53;5048294;28;20198;-65
2023/10/08 04:37:03;;;;;;;7.38;4.97;;;;;;;15.81;46.05;95613.53;5047130;28;20203;-64
2023/10/08 04:39:33;;;;;;;13.13;5.25;;;;;;;15.81;46.05;95613.53;5046215;28;20233;-65
2023/10/08 04:42:05;;;;;;;7.38;5.53;;;;;;;15.81;46.05;95613.53;5046897;28;20599;-64
2023/10/08 04:44:32;;;;;;;11.85;6.03;;;;;;;15.81;46.05;95613.53;5045727;28;20238;-64
2023/10/08 04:47:06;;;;;;;12.60;6.55;;;;;;;15.81;46.05;95613.53;5044308;28;20207;-63
2023/10/08 04:49:34;;;;;;;17.30;8.10;;;;;;;15.81;46.05;95613.53;5044776;28;20214;-63
2023/10/08 04:52:08;;;;;;;18.15;8.30;;;;;;;15.81;46.05;95613.53;5043587;28;20211;-65
2023/10/08 04:54:40;;;;;;;17.42;9.60;;;;;;;15.81;46.05;95613.53;5045075;28;20203;-66
2023/10/08 04:57:14;;;;;;;9.43;7.53;;;;;;;15.81;46.05;95613.53;5045371;28;20195;-65
2023/10/08 04:59:42;;;;;;;8.98;6.65;;;;;;;15.81;46.05;95613.53;5045149;28;20297;-66
2023/10/08 05:02:19;;;;;;;15.32;7.85;;;;;;;15.81;46.05;95613.53;5047604;28;20203;-64
2023/10/08 05:04:56;;;;;;;13.15;7.07;;;;;;;15.81;46.05;95613.53;5050077;28;20229;-65
2023/10/08 05:07:40;;;;;;;7.72;6.53;;;;;;;15.81;46.05;95613.53;5050438;28;20233;-64
2023/10/08 05:10:32;;;;;;;9.30;6.03;;;;;;;15.81;46.05;95613.53;5049259;28;20199;-65
2023/10/08 05:13:15;;;;;;;7.78;6.57;;;;;;;15.81;46.05;95613.53;5048729;28;20219;-64
2023/10/08 05:15:41;;;;;;;9.68;5.78;;;;;;;15.81;46.05;95613.53;5051415;28;20301;-66
2023/10/08 05:18:23;;;;;;;9.20;5.32;;;;;;;15.81;46.05;95613.53;5049994;28;20580;-63
2023/10/08 05:21:25;;;;;;;8.70;5.75;;;;;;;15.81;46.05;95613.53;5049938;28;20203;-66
2023/10/08 05:24:12;;;;;;;6.13;4.95;;;;;;;15.81;46.05;95613.53;5051317;28;20262;-65
2023/10/08 05:26:49;;;;;;;11.68;5.90;;;;;;;15.81;46.05;95613.53;5056414;28;20230;-64
2023/10/08 05:35:30;;;;;;;6.95;4.72;;;;;;;15.81;46.05;95613.53;5049455;28;20229;-64
2023/10/08 05:37:32;;;;;;;11.05;5.78;;;;;;;15.81;46.05;95613.53;5049642;28;20207;-66
2023/10/08 05:40:21;;;;;;;11.88;5.60;;;;;;;15.81;46.05;95613.53;5047790;28;20214;-65
2023/10/08 05:42:49;;;;;;;5.97;4.70;;;;;;;15.81;46.05;95613.53;5053198;28;20708;-67
2023/10/08 05:45:29;;;;;;;13.90;5.32;;;;;;;15.81;46.05;95613.53;5060606;28;20222;-66
2023/10/08 05:48:12;;;;;;;11.35;5.43;;;;;;;15.81;46.05;95613.53;5055032;28;20688;-66
2023/10/08 05:50:43;;;;;;;6.95;5.57;;;;;;;15.81;46.05;95613.53;5052207;28;20647;-66
2023/10/08 05:53:19;;;;;;;10.77;6.47;;;;;;;15.81;46.05;95613.53;5056369;28;20206;-64
2023/10/08 05:56:00;;;;;;;6.40;5.50;;;;;;;15.81;46.05;95613.53;5052968;28;20636;-67
2023/10/08 05:58:35;;;;;;;5.10;4.60;;;;;;;15.81;46.05;95613.53;5050817;28;20218;-65
2023/10/08 06:01:08;;;;;;;11.48;5.35;;;;;;;15.81;46.05;95613.53;5051441;28;20195;-66
2023/10/08 06:03:37;;;;;;;9.98;5.63;;;;;;;15.81;46.05;95613.53;5050245;28;20280;-63
2023/10/08 06:06:36;;;;;;;5.13;4.63;;;;;;;15.81;46.05;95613.53;5054316;28;20207;-65
2023/10/08 06:09:21;;;;;;;8.90;5.90;;;;;;;15.81;46.05;95613.53;5049174;28;20273;-67
2023/10/08 06:12:09;;;;;;;7.05;5.13;;;;;;;15.81;46.05;95613.53;5047646;28;20207;-66
2023/10/08 06:15:07;;;;;;;6.03;5.00;;;;;;;15.81;46.05;95613.53;5049578;28;20575;-65
2023/10/08 06:20:25;;;;;;;6.68;4.70;;;;;;;15.81;46.05;95613.53;5045303;28;20210;-66
2023/10/08 06:22:59;;;;;;;5.93;4.85;;;;;;;15.81;46.05;95613.53;5049037;28;20199;-67
2023/10/08 06:25:27;;;;;;;8.48;4.90;;;;;;;15.81;46.05;95613.53;5046089;28;22000;-66
2023/10/08 06:27:55;;;;;;;7.28;5.03;;;;;;;15.81;46.05;95613.53;5048691;28;20203;-65
2023/10/08 06:30:23;;;;;;;9.20;5.28;;;;;;;15.81;46.05;95613.53;5050478;28;20207;-67
2023/10/08 06:32:53;;;;;;;7.97;5.55;;;;;;;15.81;46.05;95613.53;5049658;28;20213;-63
2023/10/08 06:35:25;;;;;;;17.73;6.15;;;;;;;15.81;46.05;95613.53;5048072;28;20677;-67
2023/10/08 06:37:55;;;;;;;11.40;5.85;;;;;;;15.81;46.05;95613.53;5047932;28;20206;-65
2023/10/08 06:43:21;;;;;;;13.77;6.15;;;;;;;15.81;46.05;95613.53;4998410;28;20659;-68
2023/10/08 06:45:52;;;;;;;8.70;5.93;;;;;;;15.81;46.05;95613.53;5034570;28;20341;-65
2023/10/08 06:48:20;;;;;;;11.15;5.93;;;;;;;15.81;46.05;95613.53;5046063;28;20207;-65
2023/10/08 06:50:48;;;;;;;12.30;6.60;;;;;;;15.81;46.05;95613.53;5046509;28;20290;-63
2023/10/08 06:53:17;;;;;;;14.18;7.30;;;;;;;15.81;46.05;95613.53;5047895;28;20207;-64
2023/10/08 06:55:47;;;;;;;12.80;6.85;;;;;;;15.81;46.05;95613.53;5046230;28;20207;-64
2023/10/08 06:58:14;;;;;;;13.68;7.47;;;;;;;15.81;46.05;95613.53;5046747;28;20268;-65
2023/10/08 07:00:46;;;;;;;11.52;7.20;;;;;;;15.81;46.05;95613.53;5048401;28;20206;-66
2023/10/08 07:03:15;;;;;;;20.52;9.25;;;;;;;15.81;46.05;95613.53;5047176;28;20199;-65
2023/10/08 07:05:44;;;;;;;12.68;7.13;;;;;;;15.81;46.05;95613.53;5047247;28;20233;-66
2023/10/08 07:08:13;;;;;;;17.40;8.38;;;;;;;15.81;46.05;95613.53;5057558;28;20221;-64
2023/10/08 07:10:42;;;;;;;10.25;7.53;;;;;;;15.81;46.05;95613.53;5061343;28;20198;-66
2023/10/08 07:13:10;;;;;;;17.20;9.25;;;;;;;15.81;46.05;95613.53;5063097;28;20198;-65
2023/10/08 07:15:40;;;;;;;12.27;7.15;;;;;;;15.81;46.05;95613.53;5063140;28;20194;-66
2023/10/08 07:18:12;;;;;;;17.67;7.40;;;;;;;15.81;46.05;95613.53;5062862;28;20284;-63
2023/10/08 07:20:42;;;;;;;8.57;6.35;;;;;;;15.81;46.05;95613.53;5060809;28;20199;-62
2023/10/08 07:23:19;;;;;;;9.95;6.22;;;;;;;15.81;46.05;95613.53;5052086;28;20199;-65
2023/10/08 07:25:58;;;;;;;11.25;9.10;;;;;;;15.81;46.05;95613.53;5048449;28;20234;-67
2023/10/08 07:28:26;;;;;;;9.63;6.50;;;;;;;15.81;46.05;95613.53;5052194;28;20198;-66
2023/10/08 07:30:53;;;;;;;11.70;5.60;;;;;;;15.81;46.05;95613.53;5047896;28;20723;-65
2023/10/08 07:33:20;;;;;;;10.40;5.97;;;;;;;15.81;46.05;95613.53;5051433;28;20199;-67
2023/10/08 07:36:03;;;;;;;7.97;5.57;;;;;;;15.81;46.05;95613.53;5058407;28;20275;-67
2023/10/08 07:38:30;;;;;;;12.20;5.43;;;;;;;15.81;46.05;95613.53;5049743;28;20210;-67
2023/10/08 07:40:58;;;;;;;10.38;5.05;;;;;;;15.81;46.05;95613.53;5052264;28;20210;-68
2023/10/08 07:43:32;;;;;;;7.68;6.10;;;;;;;15.81;46.05;95613.53;5050077;28;20238;-64
2023/10/08 07:46:00;;;;;;;14.43;6.57;;;;;;;15.81;46.05;95613.53;5054751;28;20287;-66
2023/10/08 07:48:29;;;;;;;6.15;4.55;;;;;;;15.81;46.05;95613.53;5060525;28;20207;-68
2023/10/08 07:50:57;;;;;;;11.70;5.50;;;;;;;24.69;34.04;95328.59;5060641;28;20201;-67
2023/10/08 07:53:24;;;;;;;7.68;4.85;;;;;;;24.69;34.04;95328.59;5062362;28;20225;-66
2023/10/08 07:55:51;;;;;;;8.32;5.55;;;;;;;24.69;34.04;95328.59;5059693;28;20194;-65
2023/10/08 07:58:19;;;;;;;10.10;4.78;;;;;;;24.69;34.04;95328.59;5062987;28;20195;-67
2023/10/08 08:00:52;;;;;;;13.20;4.72;;;;;;;24.69;34.04;95328.59;5055863;28;20293;-66
2023/10/08 08:03:22;;;;;;;6.93;5.63;;;;;;;24.69;34.04;95328.59;5061493;28;20648;-68
2023/10/08 08:05:52;;;;;;;5.80;5.18;;;;;;;24.69;34.04;95328.59;5060536;28;20227;-67
2023/10/08 08:08:23;;;;;;;4.47;4.07;;;;;;;24.69;34.04;95328.59;5054975;28;20352;-65
2023/10/08 08:10:57;;;;;;;4.47;4.07;;;;;;;24.69;34.04;95328.59;5046780;28;20246;-65
2023/10/08 08:13:27;;;;;;;4.75;4.25;;;;;;;24.69;34.04;95328.59;5046321;28;20194;-66
2023/10/08 08:15:58;;;;;;;9.52;5.50;;;;;;;24.69;34.04;95328.59;5045476;28;20225;-65
2023/10/08 08:18:32;;;;;;;4.75;4.35;;;;;;;24.69;34.04;95328.59;5047711;28;20209;-64
2023/10/08 08:21:01;;;;;;;3.85;3.50;;;;;;;24.69;34.04;95328.59;5048970;28;20267;-67
2023/10/08 08:23:29;;;;;;;4.70;4.18;;;;;;;24.69;34.04;95328.59;5051998;28;20300;-67
2023/10/08 08:26:06;;;;;;;6.28;4.53;;;;;;;24.69;34.04;95328.59;5047048;28;20227;-67
2023/10/08 08:28:34;;;;;;;10.05;9.15;;;;;;;24.69;34.04;95328.59;5050585;28;20629;-67
2023/10/08 08:31:08;;;;;;;10.13;4.90;;;;;;;24.69;34.04;95328.59;5049886;28;20282;-66
2023/10/08 08:33:52;;;;;;;4.30;3.72;;;;;;;24.69;34.04;95328.59;5047515;28;20207;-68
2023/10/08 08:36:21;;;;;;;4.63;3.92;;;;;;;24.69;34.04;95328.59;5048399;28;20226;-67
2023/10/08 08:38:48;;;;;;;4.15;3.85;;;;;;;24.69;34.04;95328.59;5050071;28;20234;-68
2023/10/08 08:41:17;;;;;;;3.78;3.47;;;;;;;24.69;34.04;95328.59;5053558;28;20687;-66
2023/10/08 08:43:49;;;;;;;6.15;3.88;;;;;;;24.69;34.04;95328.59;5058186;28;20210;-66
2023/10/08 08:46:16;;;;;;;3.75;3.45;;;;;;;24.69;34.04;95328.59;5058554;28;20246;-66
2023/10/08 08:48:45;;;;;;;4.70;4.30;;;;;;;24.69;34.04;95328.59;5057727;28;20303;-67
2023/10/08 08:51:13;;;;;;;4.53;4.13;;;;;;;24.69;34.04;95328.59;5056380;28;20202;-63
2023/10/08 08:53:42;;;;;;;4.53;3.88;;;;;;;24.69;34.04;95328.59;5052030;28;20703;-66
2023/10/08 08:56:10;;;;;;;3.80;3.50;;;;;;;30.50;20.14;95268.41;5050478;28;20277;-64
2023/10/08 08:58:38;;;;;;;4.10;3.72;;;;;;;29.36;21.22;95280.69;5051640;28;20199;-67
2023/10/08 09:01:09;;;;;;;4.55;3.72;;;;;;;28.78;22.54;95277.03;5050673;28;20210;-61
2023/10/08 09:03:37;;;;;;;5.38;3.67;;;;;;;28.36;22.78;95266.56;5052824;28;20211;-62
2023/10/08 09:06:04;;;;;;;8.88;4.10;;;;;;;27.99;22.98;95268.56;5049700;28;20224;-62
2023/10/08 09:08:34;;;;;;;4.88;3.95;;;;;;;27.67;23.07;95274.38;5050440;28;20242;-60
2023/10/08 09:11:03;;;;;;;4.85;4.40;;;;;;;27.38;24.12;95267.56;5049633;28;20265;-67
2023/10/08 09:13:31;;;;;;;4.72;4.13;;;;;;;27.32;24.33;95264.72;5053730;28;20292;-65
2023/10/08 09:16:04;;;;;;;11.55;4.70;;;;;;;27.42;24.20;95270.69;5050394;28;20668;-67
2023/10/08 09:18:33;;;;;;;5.50;4.18;;;;;;;27.67;24.03;95264.75;5052590;28;20297;-67
2023/10/08 09:21:10;;;;;;;5.18;4.05;;;;;;;27.86;24.14;95260.31;5049791;28;20207;-65
2023/10/08 09:23:43;;;;;;;4.95;4.20;;;;;;;27.78;23.82;95267.09;5049594;28;20695;-63
2023/10/08 09:26:09;;;;;;;5.53;4.03;;;;;;;27.43;24.09;95256.66;5047982;28;20322;-67
2023/10/08 09:28:38;;;;;;;4.60;3.65;;;;;;;27.18;24.71;95253.00;5049123;28;20226;-66
2023/10/08 09:31:06;;;;;;;9.48;6.53;;;;;;;27.00;24.92;95252.16;5051755;28;20986;-63
2023/10/08 09:33:34;;;;;;;12.07;7.05;;;;;;;26.92;25.45;95252.03;5049684;28;20218;-66
2023/10/08 09:36:04;;;;;;;9.70;7.25;;;;;;;26.86;25.14;95248.22;5051454;28;20720;-65
2023/10/08 09:38:31;;;;;;;10.70;8.05;;;;;;;26.75;25.59;95246.63;5048850;28;20675;-66
2023/10/08 09:41:02;;;;;;;9.63;4.85;;;;;;;26.70;25.38;95237.63;5050535;28;20211;-67
2023/10/08 09:43:29;;;;;;;5.28;4.78;;;;;;;26.32;25.44;95246.41;5051414;28;20225;-65
2023/10/08 09:46:01;;;;;;;5.55;5.05;;;;;;;26.32;25.44;95246.41;5061556;28;20218;-66
2023/10/08 09:48:31;;;;;;;9.00;7.38;;;;;;;25.35;26.69;95245.69;5065198;28;20207;-67
2023/10/08 09:51:00;;;;;;;11.20;6.03;;;;;;;24.99;27.24;95247.19;5062092;28;20706;-65
2023/10/08 09:53:39;;;;;;;7.80;4.50;;;;;;;24.70;27.30;95241.88;5057500;28;20203;-67
2023/10/08 09:56:15;;;;;;;5.75;4.53;;;;;;;24.36;28.23;95234.38;5055047;28;20685;-65
2023/10/08 09:58:43;;;;;;;10.05;7.75;;;;;;;24.23;28.59;95233.75;5050152;28;20623;-65
2023/10/08 10:01:11;;;;;;;9.38;6.43;;;;;;;23.98;28.96;95236.78;5053305;28;20624;-65
2023/10/08 10:03:39;;;;;;;5.30;4.78;;;;;;;23.98;28.96;95236.78;5052677;28;20249;-64
2023/10/08 10:06:14;;;;;;;7.75;4.50;;;;;;;23.89;28.85;95229.75;5050361;28;20330;-66
2023/10/08 10:08:42;;;;;;;6.07;4.43;;;;;;;24.05;28.57;95230.09;5050423;28;20230;-66
2023/10/08 10:11:10;;;;;;;6.38;4.07;;;;;;;24.26;27.53;95223.13;5051187;28;20227;-66
2023/10/08 10:13:40;;;;;;;10.20;4.30;;;;;;;24.56;27.20;95213.66;5054985;28;20281;-65
2023/10/08 10:16:08;;;;;;;4.53;3.42;;;;;;;24.79;27.06;95217.69;5044290;28;20203;-68
2023/10/08 10:18:35;;;;;;;7.93;3.70;;;;;;;24.90;26.88;95222.78;5048745;28;20297;-67
2023/10/08 10:21:33;;;;;;;5.75;2.95;;;;;;;24.92;27.45;95218.25;5054177;28;20646;-65
2023/10/08 10:24:05;;;;;;;7.75;3.83;;;;;;;24.92;27.53;95210.47;5056238;28;20207;-66
2023/10/08 10:26:34;;;;;;;10.80;4.07;;;;;;;24.91;27.68;95211.41;5047740;28;20729;-68
2023/10/08 10:29:21;;;;;;;13.95;4.38;;;;;;;25.02;28.19;95195.72;5049110;28;20301;-65
2023/10/08 10:31:52;;;;;;;8.95;3.83;;;;;;;25.09;28.29;95202.00;5047996;28;20739;-66
2023/10/08 10:34:21;;;;;;;13.25;5.68;;;;;;;25.21;28.36;95179.31;5047447;28;20763;-65
2023/10/08 10:36:55;;;;;;;12.40;6.90;;;;;;;25.27;28.99;95189.13;5049643;28;20195;-65
2023/10/08 10:39:27;;;;;;;6.93;5.75;;;;;;;25.31;28.82;95184.50;5047731;28;20210;-66
2023/10/08 10:41:57;;;;;;;4.57;4.22;;;;;;;25.44;28.97;95195.44;5053133;28;20199;-66
2023/10/08 10:44:24;;;;;;;13.10;5.53;;;;;;;25.48;29.09;95170.81;5050500;28;20198;-66
2023/10/08 10:46:52;;;;;;;7.63;5.53;;;;;;;25.52;28.70;95166.94;5050406;28;20254;-66
2023/10/08 10:49:21;;;;;;;7.30;4.45;;;;;;;25.51;28.36;95178.31;5053361;28;20256;-65
2023/10/08 10:51:57;;;;;;;8.23;4.65;;;;;;;25.47;28.80;95184.78;5047674;28;20203;-64
2023/10/08 10:54:23;;;;;;;7.22;4.75;;;;;;;25.38;28.69;95167.38;5047789;28;20577;-65
2023/10/08 10:57:03;;;;;;;7.15;4.82;;;;;;;25.31;28.94;95166.28;5048939;28;20233;-65
2023/10/08 10:59:36;;;;;;;4.85;3.58;;;;;;;25.34;29.11;95166.00;5058793;28;20710;-65
2023/10/08 11:02:08;;;;;;;5.68;4.40;;;;;;;25.46;29.43;95157.09;5048792;28;20589;-66
2023/10/08 11:04:47;;;;;;;4.95;4.45;;;;;;;25.52;29.24;95161.72;5050029;28;20226;-67
2023/10/08 11:07:17;;;;;;;4.05;3.70;;;;;;;25.65;28.58;95153.66;5048266;28;20234;-67
2023/10/08 11:09:45;;;;;;;5.97;4.90;;;;;;;25.55;28.38;95138.03;5047991;28;20203;-68
2023/10/08 11:12:22;;;;;;;6.13;4.53;;;;;;;25.48;28.47;95154.38;5049713;28;20256;-64
2023/10/08 11:14:51;;;;;;;9.13;6.68;;;;;;;25.35;28.73;95141.63;5049894;28;20194;-67
2023/10/08 11:17:24;;;;;;;6.60;5.78;;;;;;;25.36;28.87;95145.88;5048218;28;20242;-65
2023/10/08 11:19:51;;;;;;;8.45;4.10;;;;;;;25.36;28.50;95141.50;5046529;28;20215;-64
2023/10/08 11:22:22;;;;;;;8.27;4.82;;;;;;;25.44;28.66;95135.59;5048046;28;20218;-65
2023/10/08 11:24:53;;;;;;;7.22;4.60;;;;;;;25.61;28.40;95131.44;5046768;28;20203;-65
2023/10/08 11:27:28;;;;;;;7.97;4.10;;;;;;;25.60;28.35;95117.63;5045426;28;20199;-66
2023/10/08 11:29:57;;;;;;;8.10;4.88;;;;;;;25.72;28.75;95121.75;5045038;28;20189;-66
2023/10/08 11:32:26;;;;;;;9.48;5.90;;;;;;;25.68;28.65;95122.16;5048683;28;20268;-65
2023/10/08 11:34:55;;;;;;;9.85;5.15;;;;;;;25.61;29.04;95127.06;5054901;28;20229;-65
2023/10/08 11:37:33;;;;;;;8.73;4.07;;;;;;;25.53;29.31;95100.91;5052770;28;20203;-66
2023/10/08 11:40:08;;;;;;;11.23;5.07;;;;;;;25.59;29.21;95120.34;5045038;28;20611;-67
2023/10/08 11:42:44;;;;;;;6.03;4.35;;;;;;;25.35;29.26;95121.66;5049856;28;20210;-68
2023/10/08 11:48:03;;;;;;;11.68;4.03;;;;;;;25.05;29.99;95133.03;5044979;28;20195;-65
2023/10/08 11:50:32;;;;;;;5.53;4.60;;;;;;;24.97;30.21;95122.50;5045418;28;20203;-65
2023/10/08 11:53:02;;;;;;;12.65;4.22;;;;;;;24.89;30.91;95126.72;5046411;28;20235;-65
2023/10/08 11:55:30;;;;;;;11.70;5.85;;;;;;;24.73;30.65;95127.28;5046754;28;20570;-66
2023/10/08 11:57:57;;;;;;;12.80;6.97;;;;;;;24.70;31.18;95125.75;5050805;28;20198;-66
2023/10/08 12:00:25;;;;;;;19.10;8.57;;;;;;;24.77;31.26;95115.63;5057729;28;20212;-64
2023/10/08 12:02:54;;;;;;;12.15;5.65;;;;;;;24.93;30.81;95118.50;5059484;28;20206;-65
2023/10/08 12:05:23;;;;;;;12.48;4.60;;;;;;;25.17;30.65;95109.50;5059718;28;20316;-66
2023/10/08 12:07:51;;;;;;;25.23;4.82;;;;;;;25.32;30.27;95095.91;5060960;28;20190;-67
2023/10/08 12:10:22;;;;;;;11.32;4.47;;;;;;;25.70;30.23;95099.41;5059143;28;20293;-65